sensor_id;sensor_type;location;lat;lon;timestamp;temperature;humidity
22714;DHT22;11524;50.846;4.326;2022-12-17T00:01:13;14.40;58.40
22714;DHT22;11524;50.846;4.326;2022-12-17T00:03:58;14.40;58.40
22714;DHT22;11524;50.846;4.326;2022-12-17T00:06:41;14.40;58.10
22714;DHT22;11524;50.846;4.326;2022-12-17T00:09:26;14.30;57.80
22714;DHT22;11524;50.846;4.326;2022-12-17T00:12:10;14.40;58.30
22714;DHT22;11524;50.846;4.326;2022-12-17T00:14:54;14.30;58.10
22714;DHT22;11524;50.846;4.326;2022-12-17T00:17:38;14.40;57.90
22714;DHT22;11524;50.846;4.326;2022-12-17T00:20:22;14.30;58.20
22714;DHT22;11524;50.846;4.326;2022-12-17T00:23:07;14.40;57.70
22714;DHT22;11524;50.846;4.326;2022-12-17T00:25:53;14.30;58.20
22714;DHT22;11524;50.846;4.326;2022-12-17T00:28:38;14.40;58.30
22714;DHT22;11524;50.846;4.326;2022-12-17T00:31:25;14.30;58.20
22714;DHT22;11524;50.846;4.326;2022-12-17T00:34:10;14.20;58.20
22714;DHT22;11524;50.846;4.326;2022-12-17T00:36:53;14.30;58.20
22714;DHT22;11524;50.846;4.326;2022-12-17T00:39:37;14.20;58.40
22714;DHT22;11524;50.846;4.326;2022-12-17T00:42:22;14.20;58.10
22714;DHT22;11524;50.846;4.326;2022-12-17T00:45:06;14.20;58.40
22714;DHT22;11524;50.846;4.326;2022-12-17T00:47:50;14.20;57.90
22714;DHT22;11524;50.846;4.326;2022-12-17T00:50:34;14.20;58.60
22714;DHT22;11524;50.846;4.326;2022-12-17T00:53:18;14.20;58.60
22714;DHT22;11524;50.846;4.326;2022-12-17T00:56:02;14.10;58.30
22714;DHT22;11524;50.846;4.326;2022-12-17T00:58:46;14.20;58.30
22714;DHT22;11524;50.846;4.326;2022-12-17T01:01:31;14.10;58.30
22714;DHT22;11524;50.846;4.326;2022-12-17T01:04:14;14.20;58.70
22714;DHT22;11524;50.846;4.326;2022-12-17T01:07:09;14.20;58.30
22714;DHT22;11524;50.846;4.326;2022-12-17T01:09:54;14.20;58.60
22714;DHT22;11524;50.846;4.326;2022-12-17T01:12:37;14.20;58.60
22714;DHT22;11524;50.846;4.326;2022-12-17T01:15:22;14.10;58.50
22714;DHT22;11524;50.846;4.326;2022-12-17T01:18:06;14.00;58.60
22714;DHT22;11524;50.846;4.326;2022-12-17T01:20:55;14.10;58.40
22714;DHT22;11524;50.846;4.326;2022-12-17T01:23:40;14.10;58.80
22714;DHT22;11524;50.846;4.326;2022-12-17T01:26:24;14.10;59.00
22714;DHT22;11524;50.846;4.326;2022-12-17T01:29:09;14.10;59.20
22714;DHT22;11524;50.846;4.326;2022-12-17T01:31:52;14.10;58.70
22714;DHT22;11524;50.846;4.326;2022-12-17T01:34:37;14.10;57.80
22714;DHT22;11524;50.846;4.326;2022-12-17T01:37:21;14.10;58.00
22714;DHT22;11524;50.846;4.326;2022-12-17T01:40:05;14.10;58.70
22714;DHT22;11524;50.846;4.326;2022-12-17T01:42:49;14.10;58.20
22714;DHT22;11524;50.846;4.326;2022-12-17T01:45:37;14.20;58.30
22714;DHT22;11524;50.846;4.326;2022-12-17T01:48:28;14.10;57.90
22714;DHT22;11524;50.846;4.326;2022-12-17T01:51:15;14.10;58.50
22714;DHT22;11524;50.846;4.326;2022-12-17T01:54:00;14.10;58.40
22714;DHT22;11524;50.846;4.326;2022-12-17T01:56:45;14.10;58.70
22714;DHT22;11524;50.846;4.326;2022-12-17T02:00:00;14.20;58.60
22714;DHT22;11524;50.846;4.326;2022-12-17T02:02:45;14.10;57.90
22714;DHT22;11524;50.846;4.326;2022-12-17T02:05:32;14.10;54.40
22714;DHT22;11524;50.846;4.326;2022-12-17T02:08:28;14.20;53.20
22714;DHT22;11524;50.846;4.326;2022-12-17T02:11:25;14.10;52.90
22714;DHT22;11524;50.846;4.326;2022-12-17T02:14:31;14.10;52.90
22714;DHT22;11524;50.846;4.326;2022-12-17T02:17:20;14.00;52.40
22714;DHT22;11524;50.846;4.326;2022-12-17T02:20:23;14.00;53.50
22714;DHT22;11524;50.846;4.326;2022-12-17T02:26:50;13.90;52.60
22714;DHT22;11524;50.846;4.326;2022-12-17T02:29:42;13.90;52.70
22714;DHT22;11524;50.846;4.326;2022-12-17T02:32:27;13.90;53.00
22714;DHT22;11524;50.846;4.326;2022-12-17T02:35:19;13.90;53.20
22714;DHT22;11524;50.846;4.326;2022-12-17T02:38:26;13.90;52.40
22714;DHT22;11524;50.846;4.326;2022-12-17T02:44:08;13.80;52.50
22714;DHT22;11524;50.846;4.326;2022-12-17T02:46:57;13.80;52.60
22714;DHT22;11524;50.846;4.326;2022-12-17T02:49:43;13.80;52.80
22714;DHT22;11524;50.846;4.326;2022-12-17T02:52:27;13.80;52.80
22714;DHT22;11524;50.846;4.326;2022-12-17T02:55:11;13.70;51.80
22714;DHT22;11524;50.846;4.326;2022-12-17T02:57:55;13.70;52.60
22714;DHT22;11524;50.846;4.326;2022-12-17T03:00:39;13.70;52.90
22714;DHT22;11524;50.846;4.326;2022-12-17T03:03:24;13.60;52.10
22714;DHT22;11524;50.846;4.326;2022-12-17T03:06:07;13.60;52.60
22714;DHT22;11524;50.846;4.326;2022-12-17T03:08:52;13.60;51.80
22714;DHT22;11524;50.846;4.326;2022-12-17T03:11:36;13.70;52.30
22714;DHT22;11524;50.846;4.326;2022-12-17T03:14:20;13.60;53.00
22714;DHT22;11524;50.846;4.326;2022-12-17T03:17:04;13.60;53.00
22714;DHT22;11524;50.846;4.326;2022-12-17T03:19:48;13.60;52.90
22714;DHT22;11524;50.846;4.326;2022-12-17T03:22:32;13.50;53.00
22714;DHT22;11524;50.846;4.326;2022-12-17T03:25:16;13.50;51.60
22714;DHT22;11524;50.846;4.326;2022-12-17T03:28:04;13.50;52.40
22714;DHT22;11524;50.846;4.326;2022-12-17T03:30:48;13.50;51.80
22714;DHT22;11524;50.846;4.326;2022-12-17T03:33:40;13.50;52.60
22714;DHT22;11524;50.846;4.326;2022-12-17T03:36:25;13.50;52.80
22714;DHT22;11524;50.846;4.326;2022-12-17T03:39:09;13.50;52.40
22714;DHT22;11524;50.846;4.326;2022-12-17T03:41:53;13.40;52.00
22714;DHT22;11524;50.846;4.326;2022-12-17T03:44:37;13.50;52.40
22714;DHT22;11524;50.846;4.326;2022-12-17T03:47:21;13.50;51.70
22714;DHT22;11524;50.846;4.326;2022-12-17T03:50:05;13.40;52.20
22714;DHT22;11524;50.846;4.326;2022-12-17T03:52:50;13.40;52.30
22714;DHT22;11524;50.846;4.326;2022-12-17T03:55:34;13.40;52.00
22714;DHT22;11524;50.846;4.326;2022-12-17T03:58:18;13.30;51.50
22714;DHT22;11524;50.846;4.326;2022-12-17T04:01:02;13.30;52.10
22714;DHT22;11524;50.846;4.326;2022-12-17T04:03:47;13.40;51.20
22714;DHT22;11524;50.846;4.326;2022-12-17T04:06:31;13.40;52.50
22714;DHT22;11524;50.846;4.326;2022-12-17T04:09:15;13.50;52.00
22714;DHT22;11524;50.846;4.326;2022-12-17T04:11:59;13.40;51.60
22714;DHT22;11524;50.846;4.326;2022-12-17T04:14:43;13.40;52.30
22714;DHT22;11524;50.846;4.326;2022-12-17T04:17:27;13.40;51.90
22714;DHT22;11524;50.846;4.326;2022-12-17T04:20:12;13.30;51.50
22714;DHT22;11524;50.846;4.326;2022-12-17T04:23:12;13.30;52.00
22714;DHT22;11524;50.846;4.326;2022-12-17T04:25:57;13.50;51.40
22714;DHT22;11524;50.846;4.326;2022-12-17T04:28:41;13.40;51.20
22714;DHT22;11524;50.846;4.326;2022-12-17T04:31:25;13.40;51.30
22714;DHT22;11524;50.846;4.326;2022-12-17T04:34:09;13.40;50.60
22714;DHT22;11524;50.846;4.326;2022-12-17T04:36:53;13.30;51.10
22714;DHT22;11524;50.846;4.326;2022-12-17T04:39:37;13.30;51.30
22714;DHT22;11524;50.846;4.326;2022-12-17T04:42:22;13.30;50.50
22714;DHT22;11524;50.846;4.326;2022-12-17T04:45:06;13.30;51.40
22714;DHT22;11524;50.846;4.326;2022-12-17T04:47:50;13.30;51.30
22714;DHT22;11524;50.846;4.326;2022-12-17T04:50:34;13.30;51.30
22714;DHT22;11524;50.846;4.326;2022-12-17T04:53:18;13.20;50.70
22714;DHT22;11524;50.846;4.326;2022-12-17T04:56:02;13.30;51.20
22714;DHT22;11524;50.846;4.326;2022-12-17T04:58:47;13.20;51.00
22714;DHT22;11524;50.846;4.326;2022-12-17T05:01:31;13.20;51.70
22714;DHT22;11524;50.846;4.326;2022-12-17T05:04:15;13.20;51.90
22714;DHT22;11524;50.846;4.326;2022-12-17T05:06:58;13.20;52.10
22714;DHT22;11524;50.846;4.326;2022-12-17T05:09:43;13.20;50.70
22714;DHT22;11524;50.846;4.326;2022-12-17T05:12:27;13.20;51.20
22714;DHT22;11524;50.846;4.326;2022-12-17T05:15:11;13.20;51.30
22714;DHT22;11524;50.846;4.326;2022-12-17T05:18:05;13.10;50.70
22714;DHT22;11524;50.846;4.326;2022-12-17T05:20:49;13.10;51.50
22714;DHT22;11524;50.846;4.326;2022-12-17T05:23:33;13.10;50.50
22714;DHT22;11524;50.846;4.326;2022-12-17T05:26:23;13.10;50.80
22714;DHT22;11524;50.846;4.326;2022-12-17T05:29:07;13.10;51.20
22714;DHT22;11524;50.846;4.326;2022-12-17T05:31:52;13.10;51.30
22714;DHT22;11524;50.846;4.326;2022-12-17T05:34:36;13.10;50.50
22714;DHT22;11524;50.846;4.326;2022-12-17T05:37:20;13.10;51.00
22714;DHT22;11524;50.846;4.326;2022-12-17T05:40:05;13.10;51.40
22714;DHT22;11524;50.846;4.326;2022-12-17T05:45:39;13.10;51.00
22714;DHT22;11524;50.846;4.326;2022-12-17T05:48:23;13.10;51.00
22714;DHT22;11524;50.846;4.326;2022-12-17T05:51:07;13.10;51.50
22714;DHT22;11524;50.846;4.326;2022-12-17T05:53:51;13.10;51.20
22714;DHT22;11524;50.846;4.326;2022-12-17T05:56:35;13.10;50.50
22714;DHT22;11524;50.846;4.326;2022-12-17T05:59:19;13.00;50.60
22714;DHT22;11524;50.846;4.326;2022-12-17T06:02:03;13.10;50.70
22714;DHT22;11524;50.846;4.326;2022-12-17T06:04:47;13.00;50.40
22714;DHT22;11524;50.846;4.326;2022-12-17T06:07:31;13.00;50.70
22714;DHT22;11524;50.846;4.326;2022-12-17T06:10:15;13.00;50.70
22714;DHT22;11524;50.846;4.326;2022-12-17T06:12:59;13.00;50.30
22714;DHT22;11524;50.846;4.326;2022-12-17T06:15:47;13.00;50.30
22714;DHT22;11524;50.846;4.326;2022-12-17T06:18:31;13.00;50.10
22714;DHT22;11524;50.846;4.326;2022-12-17T06:21:15;13.00;50.60
22714;DHT22;11524;50.846;4.326;2022-12-17T06:23:59;13.00;49.80
22714;DHT22;11524;50.846;4.326;2022-12-17T06:26:43;13.00;50.50
22714;DHT22;11524;50.846;4.326;2022-12-17T06:29:27;13.00;50.30
22714;DHT22;11524;50.846;4.326;2022-12-17T06:32:11;12.90;50.50
22714;DHT22;11524;50.846;4.326;2022-12-17T06:34:55;13.10;50.70
22714;DHT22;11524;50.846;4.326;2022-12-17T06:37:39;13.00;49.90
22714;DHT22;11524;50.846;4.326;2022-12-17T06:40:23;13.00;50.50
22714;DHT22;11524;50.846;4.326;2022-12-17T06:43:08;13.00;50.00
22714;DHT22;11524;50.846;4.326;2022-12-17T06:45:52;13.00;50.30
22714;DHT22;11524;50.846;4.326;2022-12-17T06:48:36;13.00;50.80
22714;DHT22;11524;50.846;4.326;2022-12-17T06:51:20;13.00;50.40
22714;DHT22;11524;50.846;4.326;2022-12-17T06:54:04;13.00;50.10
22714;DHT22;11524;50.846;4.326;2022-12-17T06:56:48;12.90;50.30
22714;DHT22;11524;50.846;4.326;2022-12-17T06:59:32;12.90;50.30
22714;DHT22;11524;50.846;4.326;2022-12-17T07:02:16;12.90;50.20
22714;DHT22;11524;50.846;4.326;2022-12-17T07:05:00;12.90;51.00
22714;DHT22;11524;50.846;4.326;2022-12-17T07:07:44;12.90;50.10
22714;DHT22;11524;50.846;4.326;2022-12-17T07:10:28;12.90;50.20
22714;DHT22;11524;50.846;4.326;2022-12-17T07:13:13;12.80;50.60
22714;DHT22;11524;50.846;4.326;2022-12-17T07:15:56;12.90;50.10
22714;DHT22;11524;50.846;4.326;2022-12-17T07:18:41;12.80;50.70
22714;DHT22;11524;50.846;4.326;2022-12-17T07:21:25;12.80;50.60
22714;DHT22;11524;50.846;4.326;2022-12-17T07:24:09;12.90;50.50
22714;DHT22;11524;50.846;4.326;2022-12-17T07:26:53;12.90;50.40
22714;DHT22;11524;50.846;4.326;2022-12-17T07:29:51;12.90;50.60
22714;DHT22;11524;50.846;4.326;2022-12-17T07:32:35;13.00;51.30
22714;DHT22;11524;50.846;4.326;2022-12-17T07:35:19;12.90;52.20
22714;DHT22;11524;50.846;4.326;2022-12-17T07:38:04;12.70;53.90
22714;DHT22;11524;50.846;4.326;2022-12-17T07:40:48;13.00;53.30
22714;DHT22;11524;50.846;4.326;2022-12-17T07:43:32;13.20;52.40
22714;DHT22;11524;50.846;4.326;2022-12-17T07:46:17;13.40;51.50
22714;DHT22;11524;50.846;4.326;2022-12-17T07:49:01;13.70;52.20
22714;DHT22;11524;50.846;4.326;2022-12-17T07:51:45;14.00;50.80
22714;DHT22;11524;50.846;4.326;2022-12-17T07:54:29;14.20;48.80
22714;DHT22;11524;50.846;4.326;2022-12-17T07:57:13;14.30;49.80
22714;DHT22;11524;50.846;4.326;2022-12-17T07:59:57;14.50;49.90
22714;DHT22;11524;50.846;4.326;2022-12-17T08:02:41;14.60;49.60
22714;DHT22;11524;50.846;4.326;2022-12-17T08:05:25;14.80;47.30
22714;DHT22;11524;50.846;4.326;2022-12-17T08:08:12;14.90;48.10
22714;DHT22;11524;50.846;4.326;2022-12-17T08:10:57;15.00;48.60
22714;DHT22;11524;50.846;4.326;2022-12-17T08:13:41;15.10;48.20
22714;DHT22;11524;50.846;4.326;2022-12-17T08:16:25;15.10;47.90
22714;DHT22;11524;50.846;4.326;2022-12-17T08:19:09;15.30;47.80
22714;DHT22;11524;50.846;4.326;2022-12-17T08:21:53;15.30;47.70
22714;DHT22;11524;50.846;4.326;2022-12-17T08:24:37;15.40;47.40
22714;DHT22;11524;50.846;4.326;2022-12-17T08:27:22;15.50;46.00
22714;DHT22;11524;50.846;4.326;2022-12-17T08:30:06;15.60;46.80
22714;DHT22;11524;50.846;4.326;2022-12-17T08:32:50;15.60;46.90
22714;DHT22;11524;50.846;4.326;2022-12-17T08:35:35;15.50;46.50
22714;DHT22;11524;50.846;4.326;2022-12-17T08:38:19;15.50;45.90
22714;DHT22;11524;50.846;4.326;2022-12-17T08:41:03;15.40;45.90
22714;DHT22;11524;50.846;4.326;2022-12-17T08:43:47;15.30;44.40
22714;DHT22;11524;50.846;4.326;2022-12-17T08:46:31;15.20;46.00
22714;DHT22;11524;50.846;4.326;2022-12-17T08:49:15;15.20;44.60
22714;DHT22;11524;50.846;4.326;2022-12-17T08:51:59;15.10;46.20
22714;DHT22;11524;50.846;4.326;2022-12-17T08:54:44;15.00;45.90
22714;DHT22;11524;50.846;4.326;2022-12-17T08:57:28;14.80;46.30
22714;DHT22;11524;50.846;4.326;2022-12-17T09:00:13;14.80;46.60
22714;DHT22;11524;50.846;4.326;2022-12-17T09:02:59;14.70;47.80
22714;DHT22;11524;50.846;4.326;2022-12-17T09:05:43;14.80;48.40
22714;DHT22;11524;50.846;4.326;2022-12-17T09:08:27;14.60;49.40
22714;DHT22;11524;50.846;4.326;2022-12-17T09:11:11;14.60;49.10
22714;DHT22;11524;50.846;4.326;2022-12-17T09:13:56;14.70;47.70
22714;DHT22;11524;50.846;4.326;2022-12-17T09:16:40;14.80;48.00
22714;DHT22;11524;50.846;4.326;2022-12-17T09:19:24;14.60;48.40
22714;DHT22;11524;50.846;4.326;2022-12-17T09:22:09;14.60;50.00
22714;DHT22;11524;50.846;4.326;2022-12-17T09:24:57;14.60;50.20
22714;DHT22;11524;50.846;4.326;2022-12-17T09:27:41;14.50;49.90
22714;DHT22;11524;50.846;4.326;2022-12-17T09:30:25;14.60;49.50
22714;DHT22;11524;50.846;4.326;2022-12-17T09:33:16;14.60;48.30
22714;DHT22;11524;50.846;4.326;2022-12-17T09:36:05;14.60;48.50
22714;DHT22;11524;50.846;4.326;2022-12-17T09:38:49;14.60;48.20
22714;DHT22;11524;50.846;4.326;2022-12-17T09:41:46;14.70;48.40
22714;DHT22;11524;50.846;4.326;2022-12-17T09:50:18;14.60;48.10
22714;DHT22;11524;50.846;4.326;2022-12-17T09:53:43;14.60;48.20
22714;DHT22;11524;50.846;4.326;2022-12-17T09:56:21;14.60;48.40
22714;DHT22;11524;50.846;4.326;2022-12-17T09:59:16;14.60;48.40
22714;DHT22;11524;50.846;4.326;2022-12-17T10:02:16;14.60;48.30
22714;DHT22;11524;50.846;4.326;2022-12-17T10:05:08;14.60;48.20
22714;DHT22;11524;50.846;4.326;2022-12-17T10:07:56;14.60;48.20
22714;DHT22;11524;50.846;4.326;2022-12-17T10:10:44;14.50;48.10
22714;DHT22;11524;50.846;4.326;2022-12-17T10:13:28;14.60;47.90
22714;DHT22;11524;50.846;4.326;2022-12-17T10:19:17;14.50;48.10
22714;DHT22;11524;50.846;4.326;2022-12-17T10:22:08;14.50;47.60
22714;DHT22;11524;50.846;4.326;2022-12-17T10:24:52;14.50;47.60
22714;DHT22;11524;50.846;4.326;2022-12-17T10:27:36;14.60;47.60
22714;DHT22;11524;50.846;4.326;2022-12-17T10:30:21;14.70;46.70
22714;DHT22;11524;50.846;4.326;2022-12-17T10:33:06;14.60;47.30
22714;DHT22;11524;50.846;4.326;2022-12-17T10:35:50;14.60;47.30
22714;DHT22;11524;50.846;4.326;2022-12-17T10:38:34;14.70;47.10
22714;DHT22;11524;50.846;4.326;2022-12-17T10:41:28;14.70;47.00
22714;DHT22;11524;50.846;4.326;2022-12-17T10:47:21;14.70;46.80
22714;DHT22;11524;50.846;4.326;2022-12-17T10:52:58;14.80;46.80
22714;DHT22;11524;50.846;4.326;2022-12-17T10:55:54;14.80;46.90
22714;DHT22;11524;50.846;4.326;2022-12-17T10:58:48;14.80;46.60
22714;DHT22;11524;50.846;4.326;2022-12-17T11:01:32;14.80;46.70
22714;DHT22;11524;50.846;4.326;2022-12-17T11:04:32;14.80;45.50
22714;DHT22;11524;50.846;4.326;2022-12-17T11:07:27;14.80;46.40
22714;DHT22;11524;50.846;4.326;2022-12-17T11:10:18;14.90;46.50
22714;DHT22;11524;50.846;4.326;2022-12-17T11:13:08;15.00;46.50
22714;DHT22;11524;50.846;4.326;2022-12-17T11:15:57;14.90;46.50
22714;DHT22;11524;50.846;4.326;2022-12-17T11:21:56;15.20;46.20
22714;DHT22;11524;50.846;4.326;2022-12-17T11:24:45;15.30;46.20
22714;DHT22;11524;50.846;4.326;2022-12-17T11:27:40;15.50;46.00
22714;DHT22;11524;50.846;4.326;2022-12-17T11:30:27;15.50;45.90
22714;DHT22;11524;50.846;4.326;2022-12-17T11:36:10;15.50;45.80
22714;DHT22;11524;50.846;4.326;2022-12-17T11:39:03;15.50;45.80
22714;DHT22;11524;50.846;4.326;2022-12-17T11:41:55;15.40;45.70
22714;DHT22;11524;50.846;4.326;2022-12-17T11:45:03;15.50;45.70
22714;DHT22;11524;50.846;4.326;2022-12-17T11:48:14;15.40;45.60
22714;DHT22;11524;50.846;4.326;2022-12-17T11:51:16;15.40;45.60
22714;DHT22;11524;50.846;4.326;2022-12-17T11:54:19;15.40;45.90
22714;DHT22;11524;50.846;4.326;2022-12-17T12:00:05;15.30;46.40
22714;DHT22;11524;50.846;4.326;2022-12-17T12:03:08;15.20;46.60
22714;DHT22;11524;50.846;4.326;2022-12-17T12:05:59;15.20;46.60
22714;DHT22;11524;50.846;4.326;2022-12-17T12:09:22;15.30;46.40
22714;DHT22;11524;50.846;4.326;2022-12-17T12:12:31;15.30;46.20
22714;DHT22;11524;50.846;4.326;2022-12-17T12:21:56;15.40;45.90
22714;DHT22;11524;50.846;4.326;2022-12-17T12:31:43;15.30;45.80
22714;DHT22;11524;50.846;4.326;2022-12-17T12:34:33;15.40;45.70
22714;DHT22;11524;50.846;4.326;2022-12-17T12:37:20;15.40;45.90
22714;DHT22;11524;50.846;4.326;2022-12-17T12:43:13;15.40;45.70
22714;DHT22;11524;50.846;4.326;2022-12-17T12:46:04;15.40;45.70
22714;DHT22;11524;50.846;4.326;2022-12-17T12:48:56;15.40;45.90
22714;DHT22;11524;50.846;4.326;2022-12-17T12:51:43;15.50;46.40
22714;DHT22;11524;50.846;4.326;2022-12-17T12:58:04;15.50;45.90
22714;DHT22;11524;50.846;4.326;2022-12-17T13:03:32;15.50;45.70
22714;DHT22;11524;50.846;4.326;2022-12-17T13:06:52;15.50;45.80
22714;DHT22;11524;50.846;4.326;2022-12-17T13:12:15;15.50;45.90
22714;DHT22;11524;50.846;4.326;2022-12-17T13:14:55;15.50;45.40
22714;DHT22;11524;50.846;4.326;2022-12-17T13:17:43;15.50;45.40
22714;DHT22;11524;50.846;4.326;2022-12-17T13:20:31;15.40;45.50
22714;DHT22;11524;50.846;4.326;2022-12-17T13:25:36;15.50;45.50
22714;DHT22;11524;50.846;4.326;2022-12-17T13:28:02;15.50;45.30
22714;DHT22;11524;50.846;4.326;2022-12-17T13:30:38;15.50;45.50
22714;DHT22;11524;50.846;4.326;2022-12-17T13:33:29;15.50;45.70
22714;DHT22;11524;50.846;4.326;2022-12-17T13:38:57;15.50;45.40
22714;DHT22;11524;50.846;4.326;2022-12-17T13:41:30;15.50;45.30
22714;DHT22;11524;50.846;4.326;2022-12-17T13:44:21;15.50;45.30
22714;DHT22;11524;50.846;4.326;2022-12-17T13:46:49;15.50;45.00
22714;DHT22;11524;50.846;4.326;2022-12-17T13:49:25;15.60;45.20
22714;DHT22;11524;50.846;4.326;2022-12-17T13:52:04;15.50;45.30
22714;DHT22;11524;50.846;4.326;2022-12-17T13:54:29;15.50;45.30
22714;DHT22;11524;50.846;4.326;2022-12-17T13:57:09;15.50;45.00
22714;DHT22;11524;50.846;4.326;2022-12-17T13:59:35;15.50;45.80
22714;DHT22;11524;50.846;4.326;2022-12-17T14:02:04;15.50;45.60
22714;DHT22;11524;50.846;4.326;2022-12-17T14:04:30;15.60;45.10
22714;DHT22;11524;50.846;4.326;2022-12-17T14:07:03;15.60;45.00
22714;DHT22;11524;50.846;4.326;2022-12-17T14:09:39;15.50;45.00
22714;DHT22;11524;50.846;4.326;2022-12-17T14:12:10;15.50;45.00
22714;DHT22;11524;50.846;4.326;2022-12-17T14:17:26;15.50;45.00
22714;DHT22;11524;50.846;4.326;2022-12-17T14:20:16;15.60;44.80
22714;DHT22;11524;50.846;4.326;2022-12-17T14:22:48;15.50;44.70
22714;DHT22;11524;50.846;4.326;2022-12-17T14:25:22;15.50;44.80
22714;DHT22;11524;50.846;4.326;2022-12-17T14:27:55;15.50;44.80
22714;DHT22;11524;50.846;4.326;2022-12-17T14:33:01;15.50;45.00
22714;DHT22;11524;50.846;4.326;2022-12-17T14:35:35;15.50;45.00
22714;DHT22;11524;50.846;4.326;2022-12-17T14:38:03;15.50;44.80
22714;DHT22;11524;50.846;4.326;2022-12-17T14:40:29;15.50;44.90
22714;DHT22;11524;50.846;4.326;2022-12-17T14:42:59;15.50;45.00
22714;DHT22;11524;50.846;4.326;2022-12-17T14:45:27;15.50;44.90
22714;DHT22;11524;50.846;4.326;2022-12-17T14:48:00;15.50;44.80
22714;DHT22;11524;50.846;4.326;2022-12-17T14:50:33;15.50;44.80
22714;DHT22;11524;50.846;4.326;2022-12-17T14:53:22;15.50;44.80
22714;DHT22;11524;50.846;4.326;2022-12-17T14:55:58;15.50;44.80
22714;DHT22;11524;50.846;4.326;2022-12-17T14:58:25;15.50;44.70
22714;DHT22;11524;50.846;4.326;2022-12-17T15:00:54;15.50;44.80
22714;DHT22;11524;50.846;4.326;2022-12-17T15:03:47;15.50;44.60
22714;DHT22;11524;50.846;4.326;2022-12-17T15:06:16;15.40;44.60
22714;DHT22;11524;50.846;4.326;2022-12-17T15:08:44;15.50;44.80
22714;DHT22;11524;50.846;4.326;2022-12-17T15:11:13;15.50;44.70
22714;DHT22;11524;50.846;4.326;2022-12-17T15:13:39;15.50;44.60
22714;DHT22;11524;50.846;4.326;2022-12-17T15:16:05;15.50;45.40
22714;DHT22;11524;50.846;4.326;2022-12-17T15:18:31;15.40;44.70
22714;DHT22;11524;50.846;4.326;2022-12-17T15:20:56;15.50;44.70
22714;DHT22;11524;50.846;4.326;2022-12-17T15:23:23;15.40;44.80
22714;DHT22;11524;50.846;4.326;2022-12-17T15:25:50;15.40;44.60
22714;DHT22;11524;50.846;4.326;2022-12-17T15:28:17;15.40;44.70
22714;DHT22;11524;50.846;4.326;2022-12-17T15:30:44;15.40;44.80
22714;DHT22;11524;50.846;4.326;2022-12-17T15:33:10;15.40;44.80
22714;DHT22;11524;50.846;4.326;2022-12-17T15:35:36;15.40;44.80
22714;DHT22;11524;50.846;4.326;2022-12-17T15:38:03;15.40;44.70
22714;DHT22;11524;50.846;4.326;2022-12-17T15:40:29;15.40;44.70
22714;DHT22;11524;50.846;4.326;2022-12-17T15:42:55;15.40;44.80
22714;DHT22;11524;50.846;4.326;2022-12-17T15:45:44;15.40;44.60
22714;DHT22;11524;50.846;4.326;2022-12-17T15:48:12;15.40;44.90
22714;DHT22;11524;50.846;4.326;2022-12-17T15:50:38;15.50;45.10
22714;DHT22;11524;50.846;4.326;2022-12-17T15:53:05;15.30;45.50
22714;DHT22;11524;50.846;4.326;2022-12-17T15:55:31;15.30;45.20
22714;DHT22;11524;50.846;4.326;2022-12-17T15:57:57;15.30;44.90
22714;DHT22;11524;50.846;4.326;2022-12-17T16:00:23;15.30;45.10
22714;DHT22;11524;50.846;4.326;2022-12-17T16:02:49;15.40;45.10
22714;DHT22;11524;50.846;4.326;2022-12-17T16:05:16;15.40;44.90
22714;DHT22;11524;50.846;4.326;2022-12-17T16:07:42;15.40;45.00
22714;DHT22;11524;50.846;4.326;2022-12-17T16:10:11;15.30;44.80
22714;DHT22;11524;50.846;4.326;2022-12-17T16:12:37;15.40;44.90
22714;DHT22;11524;50.846;4.326;2022-12-17T16:15:03;15.30;45.20
22714;DHT22;11524;50.846;4.326;2022-12-17T16:17:29;15.20;45.40
22714;DHT22;11524;50.846;4.326;2022-12-17T16:19:55;15.30;45.60
22714;DHT22;11524;50.846;4.326;2022-12-17T16:22:20;15.20;45.70
22714;DHT22;11524;50.846;4.326;2022-12-17T16:24:46;15.30;46.00
22714;DHT22;11524;50.846;4.326;2022-12-17T16:27:12;15.20;45.80
22714;DHT22;11524;50.846;4.326;2022-12-17T16:29:38;15.20;46.40
22714;DHT22;11524;50.846;4.326;2022-12-17T16:32:03;15.30;46.30
22714;DHT22;11524;50.846;4.326;2022-12-17T16:34:29;15.30;46.00
22714;DHT22;11524;50.846;4.326;2022-12-17T16:36:55;15.30;45.90
22714;DHT22;11524;50.846;4.326;2022-12-17T16:39:20;15.30;46.30
22714;DHT22;11524;50.846;4.326;2022-12-17T16:41:46;15.40;46.40
22714;DHT22;11524;50.846;4.326;2022-12-17T16:44:12;15.40;45.60
22714;DHT22;11524;50.846;4.326;2022-12-17T16:46:39;15.40;45.60
22714;DHT22;11524;50.846;4.326;2022-12-17T16:49:28;15.30;45.40
22714;DHT22;11524;50.846;4.326;2022-12-17T16:51:55;15.30;45.20
22714;DHT22;11524;50.846;4.326;2022-12-17T16:54:23;15.30;45.20
22714;DHT22;11524;50.846;4.326;2022-12-17T16:56:50;15.30;45.10
22714;DHT22;11524;50.846;4.326;2022-12-17T16:59:17;15.30;45.10
22714;DHT22;11524;50.846;4.326;2022-12-17T17:01:45;15.30;45.30
22714;DHT22;11524;50.846;4.326;2022-12-17T17:04:12;15.30;45.10
22714;DHT22;11524;50.846;4.326;2022-12-17T17:06:39;15.10;45.60
22714;DHT22;11524;50.846;4.326;2022-12-17T17:09:05;14.80;45.90
22714;DHT22;11524;50.846;4.326;2022-12-17T17:11:31;14.60;46.70
22714;DHT22;11524;50.846;4.326;2022-12-17T17:13:57;14.50;46.70
22714;DHT22;11524;50.846;4.326;2022-12-17T17:16:23;14.40;47.20
22714;DHT22;11524;50.846;4.326;2022-12-17T17:18:50;14.30;47.50
22714;DHT22;11524;50.846;4.326;2022-12-17T17:23:51;14.10;48.10
22714;DHT22;11524;50.846;4.326;2022-12-17T17:26:18;14.10;48.20
22714;DHT22;11524;50.846;4.326;2022-12-17T17:28:45;14.00;48.40
22714;DHT22;11524;50.846;4.326;2022-12-17T17:31:12;14.00;48.50
22714;DHT22;11524;50.846;4.326;2022-12-17T17:33:40;13.90;48.40
22714;DHT22;11524;50.846;4.326;2022-12-17T17:36:13;14.00;48.60
22714;DHT22;11524;50.846;4.326;2022-12-17T17:38:40;13.90;48.90
22714;DHT22;11524;50.846;4.326;2022-12-17T17:41:08;13.90;48.90
22714;DHT22;11524;50.846;4.326;2022-12-17T17:43:34;13.80;48.70
22714;DHT22;11524;50.846;4.326;2022-12-17T17:46:12;13.80;48.90
22714;DHT22;11524;50.846;4.326;2022-12-17T17:48:39;13.80;48.90
22714;DHT22;11524;50.846;4.326;2022-12-17T17:51:07;13.80;49.00
22714;DHT22;11524;50.846;4.326;2022-12-17T17:53:34;13.80;49.10
22714;DHT22;11524;50.846;4.326;2022-12-17T17:56:09;13.80;49.00
22714;DHT22;11524;50.846;4.326;2022-12-17T17:58:44;13.70;49.00
22714;DHT22;11524;50.846;4.326;2022-12-17T18:01:12;13.70;49.30
22714;DHT22;11524;50.846;4.326;2022-12-17T18:03:38;13.70;49.50
22714;DHT22;11524;50.846;4.326;2022-12-17T18:06:06;13.70;49.20
22714;DHT22;11524;50.846;4.326;2022-12-17T18:08:33;13.70;49.30
22714;DHT22;11524;50.846;4.326;2022-12-17T18:11:00;13.70;49.60
22714;DHT22;11524;50.846;4.326;2022-12-17T18:13:27;13.60;49.40